Time;durP1;ratioP1;P1;durP2;ratioP2;P2;SDS_P1;SDS_P2;PMS_P1;PMS_P2;Temp;Humidity;BMP_temperature;BMP_pressure;BME280_temperature;BME280_humidity;BME280_pressure;Samples;Min_cycle;Max_cycle;Signal;HPM_P1;HPM_P2
2023/06/18 00:00:25;;;;;;;7.07;4.82;;;21.50;77.80;;;;;;5071099;28;20044;-70
2023/06/18 00:02:50;;;;;;;11.57;4.85;;;21.50;78.10;;;;;;5070949;28;20036;-70
2023/06/18 00:05:16;;;;;;;11.75;6.10;;;21.40;78.50;;;;;;5071580;28;20027;-71
2023/06/18 00:07:41;;;;;;;9.48;4.65;;;21.30;78.90;;;;;;5071407;28;20031;-70
2023/06/18 00:10:07;;;;;;;7.18;5.00;;;21.30;79.20;;;;;;5070510;28;20056;-70
2023/06/18 00:12:33;;;;;;;8.50;5.20;;;21.20;79.70;;;;;;5071480;28;20390;-70
2023/06/18 00:14:58;;;;;;;8.70;5.45;;;21.20;80.00;;;;;;5070757;28;20012;-70
2023/06/18 00:17:25;;;;;;;8.68;5.65;;;21.10;80.40;;;;;;5071811;28;20039;-71
2023/06/18 00:19:51;;;;;;;9.65;5.57;;;21.10;80.80;;;;;;5071159;28;20082;-71
2023/06/18 00:22:17;;;;;;;8.65;4.75;;;21.00;81.50;;;;;;5071210;28;20514;-70
2023/06/18 00:24:42;;;;;;;6.32;4.90;;;21.00;81.90;;;;;;5071196;28;20036;-70
2023/06/18 00:27:09;;;;;;;9.15;5.70;;;20.90;82.30;;;;;;5070218;28;20405;-70
2023/06/18 00:29:35;;;;;;;11.88;5.72;;;20.80;82.80;;;;;;5071278;28;20017;-70
2023/06/18 00:32:01;;;;;;;9.32;5.60;;;20.80;83.40;;;;;;5070072;28;20013;-70
2023/06/18 00:34:32;;;;;;;7.00;5.05;;;20.70;83.80;;;;;;5075335;28;20089;-71
2023/06/18 00:37:02;;;;;;;8.45;5.43;;;20.70;84.30;;;;;;5075024;28;20029;-70
2023/06/18 00:39:28;;;;;;;8.48;5.32;;;20.60;84.80;;;;;;5075672;28;20529;-70
2023/06/18 00:41:54;;;;;;;9.20;6.35;;;20.50;85.40;;;;;;5075129;28;20155;-70
2023/06/18 00:44:20;;;;;;;8.90;6.07;;;20.50;86.10;;;;;;5074974;28;20394;-70
2023/06/18 00:46:47;;;;;;;11.50;5.80;;;20.50;86.80;;;;;;5056764;28;20105;-70
2023/06/18 00:49:15;;;;;;;11.65;6.15;;;20.40;87.40;;;;;;5062724;28;20028;-70
2023/06/18 00:51:44;;;;;;;11.50;6.80;;;20.40;88.00;;;;;;5075166;28;20078;-70
2023/06/18 00:54:13;;;;;;;10.77;6.30;;;20.40;88.80;;;;;;5074612;28;20503;-70
2023/06/18 00:56:50;;;;;;;11.55;6.35;;;20.30;89.60;;;;;;5075351;28;20023;-70
2023/06/18 00:59:21;;;;;;;8.80;5.85;;;20.20;90.10;;;;;;5074852;28;20032;-70
2023/06/18 01:01:48;;;;;;;11.70;6.47;;;20.20;90.50;;;;;;5074589;28;20052;-70
2023/06/18 01:04:13;;;;;;;12.25;7.00;;;20.10;91.00;;;;;;5073544;28;20094;-70
2023/06/18 01:06:39;;;;;;;10.60;5.90;;;20.10;91.50;;;;;;5074675;28;20139;-70
2023/06/18 01:09:05;;;;;;;11.20;5.70;;;20.00;91.90;;;;;;5074408;28;20028;-70
2023/06/18 01:11:37;;;;;;;10.25;5.97;;;19.90;92.40;;;;;;5074618;28;20025;-70
2023/06/18 01:14:09;;;;;;;10.15;6.97;;;19.90;93.00;;;;;;5074492;28;20025;-70
2023/06/18 01:16:46;;;;;;;13.48;7.10;;;19.80;93.50;;;;;;5074896;28;20103;-70
2023/06/18 01:19:29;;;;;;;15.00;6.93;;;19.70;94.10;;;;;;5073864;28;20390;-70
2023/06/18 01:22:01;;;;;;;10.98;6.35;;;19.70;94.60;;;;;;5074483;28;20029;-70
2023/06/18 01:24:32;;;;;;;9.38;6.85;;;19.60;95.20;;;;;;5074183;28;20397;-70
2023/06/18 01:26:58;;;;;;;10.57;6.90;;;19.60;95.70;;;;;;5074315;28;20453;-70
2023/06/18 01:29:26;;;;;;;10.95;7.22;;;19.50;96.20;;;;;;5074246;28;20033;-70
2023/06/18 01:31:52;;;;;;;11.63;7.70;;;19.50;96.70;;;;;;5073878;28;20028;-70
2023/06/18 01:34:18;;;;;;;11.23;7.85;;;19.40;97.20;;;;;;5074056;28;20024;-70
2023/06/18 01:36:50;;;;;;;10.45;7.20;;;19.30;97.70;;;;;;5074346;28;20051;-70
2023/06/18 01:39:43;;;;;;;12.27;8.00;;;19.30;98.20;;;;;;5073753;28;20052;-70
2023/06/18 01:42:14;;;;;;;11.57;7.72;;;19.20;98.60;;;;;;5073729;28;20401;-70
2023/06/18 01:44:44;;;;;;;10.50;8.03;;;19.10;99.00;;;;;;5072441;28;20039;-70
2023/06/18 01:47:12;;;;;;;11.52;7.63;;;19.10;99.30;;;;;;5073655;28;20024;-70
2023/06/18 01:49:40;;;;;;;11.80;7.93;;;19.00;99.80;;;;;;5074019;28;20017;-70
2023/06/18 01:52:07;;;;;;;10.40;7.65;;;19.00;99.90;;;;;;5072808;28;20028;-70
2023/06/18 01:54:33;;;;;;;11.32;7.80;;;18.80;99.90;;;;;;5073223;28;20474;-70
2023/06/18 01:57:00;;;;;;;11.82;8.80;;;18.80;99.90;;;;;;5073726;28;20028;-71
2023/06/18 01:59:26;;;;;;;12.00;8.15;;;18.70;99.90;;;;;;5073352;28;20382;-70
2023/06/18 02:01:52;;;;;;;12.32;8.80;;;18.60;99.90;;;;;;5072936;28;20049;-70
2023/06/18 02:04:17;;;;;;;15.05;8.10;;;18.60;99.90;;;;;;5073599;28;20037;-70
2023/06/18 02:06:43;;;;;;;14.95;8.00;;;18.50;99.90;;;;;;5073792;28;20547;-70
2023/06/18 02:09:09;;;;;;;13.60;8.85;;;18.50;99.90;;;;;;5072859;28;20028;-70
2023/06/18 02:11:34;;;;;;;13.43;8.63;;;18.40;99.90;;;;;;5073498;28;20036;-70
2023/06/18 02:14:00;;;;;;;10.10;8.73;;;18.30;99.90;;;;;;5072982;28;20039;-70
2023/06/18 02:16:25;;;;;;;13.85;8.90;;;18.30;99.90;;;;;;5073602;28;20451;-70
2023/06/18 02:18:51;;;;;;;14.43;9.57;;;18.20;99.90;;;;;;5073119;28;20482;-70
2023/06/18 02:21:16;;;;;;;15.23;9.68;;;18.20;99.90;;;;;;5073235;28;20024;-70
2023/06/18 02:23:42;;;;;;;14.25;9.18;;;18.10;99.90;;;;;;5072938;28;20398;-70
2023/06/18 02:26:08;;;;;;;14.73;9.35;;;18.10;99.90;;;;;;5072693;28;20745;-70
2023/06/18 02:28:34;;;;;;;16.92;9.60;;;18.10;99.90;;;;;;5073322;28;20099;-70
2023/06/18 02:31:00;;;;;;;13.52;9.23;;;18.10;99.90;;;;;;5072558;28;20115;-70
2023/06/18 02:33:26;;;;;;;14.73;9.85;;;18.00;99.90;;;;;;5073007;28;20058;-70
2023/06/18 02:35:51;;;;;;;15.48;10.38;;;18.00;99.90;;;;;;5072779;28;20029;-70
2023/06/18 02:38:17;;;;;;;12.98;8.63;;;17.90;99.90;;;;;;5072728;28;20394;-70
2023/06/18 02:40:42;;;;;;;13.82;9.48;;;17.90;99.90;;;;;;5072771;28;20466;-70
2023/06/18 02:43:08;;;;;;;16.98;10.07;;;17.80;99.90;;;;;;5061723;28;20032;-70
2023/06/18 02:45:34;;;;;;;17.60;11.18;;;17.80;99.90;;;;;;5070677;28;20359;-71
2023/06/18 02:48:00;;;;;;;14.63;10.07;;;17.80;99.90;;;;;;5072462;28;20438;-71
2023/06/18 02:50:25;;;;;;;16.08;11.40;;;17.70;99.90;;;;;;5071801;28;20081;-71
2023/06/18 02:52:51;;;;;;;17.67;11.23;;;17.70;99.90;;;;;;5071719;28;20031;-71
2023/06/18 02:55:16;;;;;;;15.35;10.70;;;17.70;99.90;;;;;;5072037;28;20036;-71
2023/06/18 02:57:42;;;;;;;15.45;10.77;;;17.60;99.90;;;;;;5072619;28;20021;-71
2023/06/18 03:00:13;;;;;;;14.45;10.82;;;17.60;99.90;;;;;;5071811;28;20024;-71
2023/06/18 03:02:41;;;;;;;16.88;11.52;;;17.60;99.90;;;;;;5072473;28;20022;-71
2023/06/18 03:05:07;;;;;;;16.02;10.80;;;17.50;99.90;;;;;;5072090;28;20028;-71
2023/06/18 03:07:33;;;;;;;14.93;10.85;;;17.50;99.90;;;;;;5072211;28;20025;-70
2023/06/18 03:09:58;;;;;;;18.63;11.80;;;17.40;99.90;;;;;;5072045;28;20020;-71
2023/06/18 03:12:24;;;;;;;15.65;10.98;;;17.40;99.90;;;;;;5072262;28;20012;-71
2023/06/18 03:14:50;;;;;;;15.80;10.23;;;17.40;99.90;;;;;;5071927;28;20149;-71
2023/06/18 03:17:15;;;;;;;17.27;11.00;;;17.40;99.90;;;;;;5072243;28;20025;-71
2023/06/18 03:19:40;;;;;;;15.88;11.55;;;17.30;99.90;;;;;;5072372;28;20474;-71
2023/06/18 03:22:06;;;;;;;18.65;11.68;;;17.30;99.90;;;;;;5071046;28;20099;-71
2023/06/18 03:24:32;;;;;;;16.30;11.10;;;17.30;99.90;;;;;;5071930;28;20036;-71
2023/06/18 03:26:59;;;;;;;13.23;10.98;;;17.30;99.90;;;;;;5071857;28;20052;-71
2023/06/18 03:29:30;;;;;;;17.58;12.00;;;17.20;99.90;;;;;;5071990;28;20020;-71
2023/06/18 03:31:56;;;;;;;13.98;10.52;;;17.20;99.90;;;;;;5071930;28;20082;-70
2023/06/18 03:34:24;;;;;;;15.50;11.57;;;17.10;99.90;;;;;;5071992;28;20482;-70
2023/06/18 03:36:50;;;;;;;17.20;10.80;;;17.10;99.90;;;;;;5071466;28;20027;-70
2023/06/18 03:39:16;;;;;;;16.58;11.43;;;17.20;99.90;;;;;;5070498;28;20120;-70
2023/06/18 03:41:42;;;;;;;17.88;12.23;;;17.10;99.90;;;;;;5070291;28;20016;-70
2023/06/18 03:44:08;;;;;;;14.70;10.63;;;17.10;99.90;;;;;;5071792;28;20032;-71
2023/06/18 03:46:34;;;;;;;18.05;11.48;;;17.10;99.90;;;;;;5071709;28;20390;-70
2023/06/18 03:49:00;;;;;;;19.63;12.77;;;17.20;99.90;;;;;;5071535;28;20032;-71
2023/06/18 03:51:26;;;;;;;16.40;10.95;;;17.10;99.90;;;;;;5071396;28;20025;-70
2023/06/18 03:53:52;;;;;;;15.43;12.18;;;17.20;99.90;;;;;;5071193;28;20027;-71
2023/06/18 03:56:18;;;;;;;18.02;12.13;;;17.20;99.90;;;;;;5071827;28;20031;-71
2023/06/18 03:58:44;;;;;;;15.75;11.20;;;17.20;99.90;;;;;;5070400;28;20025;-71
2023/06/18 04:01:10;;;;;;;19.95;10.65;;;17.30;99.90;;;;;;5070571;28;20044;-71
2023/06/18 04:03:37;;;;;;;17.40;11.15;;;17.30;99.90;;;;;;5071056;28;20039;-71
2023/06/18 04:06:03;;;;;;;17.70;11.45;;;17.30;99.90;;;;;;5070074;28;20027;-71
2023/06/18 04:08:28;;;;;;;16.58;11.23;;;17.30;99.90;;;;;;5070046;28;20020;-71
2023/06/18 04:10:55;;;;;;;16.10;11.20;;;17.40;99.90;;;;;;5071045;28;20198;-71
2023/06/18 04:13:21;;;;;;;16.23;10.95;;;17.40;99.90;;;;;;5069901;28;20039;-71
2023/06/18 04:15:47;;;;;;;13.65;11.77;;;17.50;99.90;;;;;;5071440;28;20029;-70
2023/06/18 04:18:13;;;;;;;15.93;11.93;;;17.50;99.90;;;;;;5071261;28;20027;-71
2023/06/18 04:20:38;;;;;;;15.80;11.30;;;17.50;99.90;;;;;;5071014;28;20024;-70
2023/06/18 04:23:06;;;;;;;17.23;12.60;;;17.60;99.90;;;;;;5071094;28;20473;-71
2023/06/18 04:25:33;;;;;;;15.63;13.30;;;17.60;99.90;;;;;;5070933;28;20025;-70
2023/06/18 04:27:59;;;;;;;17.75;11.57;;;17.70;99.90;;;;;;5070602;28;20024;-70
2023/06/18 04:30:25;;;;;;;16.02;11.55;;;17.80;99.90;;;;;;5071284;28;20032;-70
2023/06/18 04:32:50;;;;;;;16.23;12.05;;;17.80;99.90;;;;;;5071057;28;20431;-71
2023/06/18 04:35:16;;;;;;;15.77;11.95;;;17.80;99.90;;;;;;5070963;28;20225;-70
2023/06/18 04:37:41;;;;;;;18.60;11.68;;;17.90;99.90;;;;;;5071013;28;20162;-70
2023/06/18 04:40:08;;;;;;;21.50;12.18;;;17.90;99.90;;;;;;5062620;28;20060;-70
2023/06/18 04:42:35;;;;;;;15.43;12.70;;;17.90;99.90;;;;;;5051076;28;20078;-70
2023/06/18 04:45:00;;;;;;;17.45;12.25;;;18.00;99.90;;;;;;5069283;28;20107;-70
2023/06/18 04:47:26;;;;;;;17.30;12.95;;;18.00;99.90;;;;;;5071373;28;20029;-69
2023/06/18 04:49:52;;;;;;;17.90;13.30;;;18.10;99.90;;;;;;5069951;28;20020;-70
2023/06/18 04:52:18;;;;;;;18.08;12.77;;;18.10;99.90;;;;;;5070935;28;20416;-70
2023/06/18 04:54:44;;;;;;;17.27;12.65;;;18.10;99.90;;;;;;5071116;28;20025;-70
2023/06/18 04:57:10;;;;;;;15.80;12.13;;;18.20;99.90;;;;;;5070567;28;20103;-70
2023/06/18 04:59:38;;;;;;;18.38;12.63;;;18.20;99.90;;;;;;5070738;28;20095;-70
2023/06/18 05:02:03;;;;;;;18.50;12.18;;;18.30;99.90;;;;;;5069214;28;20390;-70
2023/06/18 05:04:29;;;;;;;17.30;12.90;;;18.30;99.90;;;;;;5070641;28;20098;-70
2023/06/18 05:06:55;;;;;;;18.30;12.15;;;18.40;99.90;;;;;;5069700;28;20024;-70
2023/06/18 05:09:21;;;;;;;14.95;11.48;;;18.50;99.90;;;;;;5071184;28;20047;-70
2023/06/18 05:11:46;;;;;;;16.58;12.30;;;18.60;99.90;;;;;;5070498;28;20034;-70
2023/06/18 05:14:12;;;;;;;16.38;12.63;;;18.70;99.90;;;;;;5069786;28;20036;-70
2023/06/18 05:16:37;;;;;;;15.10;11.65;;;18.70;99.90;;;;;;5070915;28;20100;-70
2023/06/18 05:19:03;;;;;;;17.17;11.82;;;18.80;99.90;;;;;;5071958;28;20445;-70
2023/06/18 05:21:29;;;;;;;17.60;12.63;;;18.90;99.90;;;;;;5073437;28;20545;-70
2023/06/18 05:23:55;;;;;;;17.75;12.68;;;19.00;99.90;;;;;;5074139;28;20083;-70
2023/06/18 05:26:23;;;;;;;17.02;12.52;;;19.10;99.90;;;;;;5074366;28;20048;-70
2023/06/18 05:28:49;;;;;;;17.77;12.43;;;19.30;99.90;;;;;;5074205;28;20071;-70
2023/06/18 05:31:15;;;;;;;15.85;12.55;;;19.40;99.90;;;;;;5074247;28;20027;-70
2023/06/18 05:33:40;;;;;;;15.90;12.43;;;19.60;99.90;;;;;;5074432;28;20032;-70
2023/06/18 05:36:06;;;;;;;16.13;12.52;;;19.70;99.90;;;;;;5073190;28;20103;-70
2023/06/18 05:38:31;;;;;;;16.63;12.35;;;19.90;99.90;;;;;;5072591;28;20406;-70
2023/06/18 05:40:57;;;;;;;15.40;11.90;;;20.10;99.90;;;;;;5073929;28;20167;-70
2023/06/18 05:43:22;;;;;;;16.52;11.50;;;20.30;99.90;;;;;;5073963;28;20081;-70
2023/06/18 05:45:50;;;;;;;13.15;10.63;;;20.60;99.90;;;;;;5074076;28;20390;-71
2023/06/18 05:48:17;;;;;;;11.18;9.95;;;20.90;99.90;;;;;;5074024;28;20111;-70
2023/06/18 05:50:43;;;;;;;14.25;9.48;;;21.20;99.90;;;;;;5073633;28;20028;-70
2023/06/18 05:53:08;;;;;;;12.73;9.23;;;21.40;99.90;;;;;;5073622;28;20032;-70
2023/06/18 05:55:34;;;;;;;14.02;10.00;;;21.70;99.90;;;;;;5073448;28;20024;-70
2023/06/18 05:58:01;;;;;;;14.13;9.55;;;21.90;99.90;;;;;;5073859;28;20060;-70
2023/06/18 06:00:26;;;;;;;13.80;8.25;;;22.00;99.90;;;;;;5073695;28;20048;-70
2023/06/18 06:02:52;;;;;;;24.30;10.05;;;22.10;99.10;;;;;;5073540;28;20025;-70
2023/06/18 06:05:18;;;;;;;14.88;8.45;;;22.20;98.10;;;;;;5074086;28;20029;-70
2023/06/18 06:07:44;;;;;;;11.75;8.43;;;22.40;97.50;;;;;;5073390;28;20390;-70
2023/06/18 06:10:12;;;;;;;10.98;8.63;;;22.50;96.40;;;;;;5073095;28;20115;-70
2023/06/18 06:12:38;;;;;;;13.57;8.77;;;22.70;95.60;;;;;;5073899;28;20104;-70
2023/06/18 06:15:04;;;;;;;13.30;8.35;;;22.90;94.90;;;;;;5073185;28;20542;-70
2023/06/18 06:17:30;;;;;;;11.85;7.65;;;23.10;94.40;;;;;;5073518;28;20017;-70
2023/06/18 06:19:56;;;;;;;11.00;8.15;;;23.30;93.80;;;;;;5073214;28;20385;-70
2023/06/18 06:22:21;;;;;;;11.77;7.75;;;23.40;93.20;;;;;;5072729;28;20029;-70
2023/06/18 06:24:47;;;;;;;10.98;7.50;;;23.50;92.30;;;;;;5073083;28;20036;-70
2023/06/18 06:27:12;;;;;;;10.27;7.35;;;23.60;91.70;;;;;;5072923;28;20017;-70
2023/06/18 06:29:38;;;;;;;12.95;7.60;;;23.70;91.00;;;;;;5073026;28;20020;-70
2023/06/18 06:32:04;;;;;;;13.13;7.65;;;23.80;90.00;;;;;;5071925;28;20431;-70
2023/06/18 06:34:29;;;;;;;9.82;7.38;;;23.90;88.90;;;;;;5073292;28;20456;-70
2023/06/18 06:36:55;;;;;;;9.25;6.97;;;24.00;87.20;;;;;;5069041;28;20037;-70
2023/06/18 06:39:20;;;;;;;18.38;7.45;;;24.10;86.60;;;;;;5073081;28;20021;-70
2023/06/18 06:41:46;;;;;;;8.98;6.90;;;24.20;84.30;;;;;;5073409;28;20542;-70
2023/06/18 06:44:12;;;;;;;10.45;8.15;;;24.20;83.80;;;;;;5072746;28;20081;-70
2023/06/18 06:46:38;;;;;;;10.02;7.45;;;24.20;83.20;;;;;;5072881;28;20027;-70
2023/06/18 06:49:07;;;;;;;9.65;6.57;;;24.30;82.00;;;;;;5072435;28;20506;-70
2023/06/18 06:51:34;;;;;;;9.63;6.80;;;24.30;82.30;;;;;;5072237;28;20028;-70
2023/06/18 06:53:59;;;;;;;9.73;7.55;;;24.50;81.90;;;;;;5070462;28;20074;-70
2023/06/18 06:56:25;;;;;;;13.98;8.73;;;24.60;80.70;;;;;;5072574;28;20029;-70
2023/06/18 06:58:51;;;;;;;10.98;7.88;;;24.70;79.40;;;;;;5072275;28;20016;-70
2023/06/18 07:01:19;;;;;;;10.40;7.47;;;24.80;78.10;;;;;;5072076;28;20425;-70
2023/06/18 07:03:45;;;;;;;12.38;6.97;;;24.90;77.30;;;;;;5072806;28;20036;-70
2023/06/18 07:06:11;;;;;;;12.73;7.80;;;25.10;76.50;;;;;;5071823;28;20020;-70
2023/06/18 07:08:36;;;;;;;13.55;7.90;;;25.30;75.70;;;;;;5072721;28;20031;-70
2023/06/18 07:11:02;;;;;;;8.20;6.80;;;25.50;74.70;;;;;;5072205;28;20052;-70
2023/06/18 07:13:28;;;;;;;10.65;7.55;;;25.60;73.90;;;;;;5071953;28;20108;-70
2023/06/18 07:15:53;;;;;;;11.38;8.38;;;25.70;71.40;;;;;;5071768;28;20038;-70
2023/06/18 07:18:19;;;;;;;10.05;7.72;;;25.70;71.40;;;;;;5071296;28;20037;-70
2023/06/18 07:20:44;;;;;;;10.02;8.05;;;25.70;70.60;;;;;;5072512;28;20417;-70
2023/06/18 07:23:10;;;;;;;11.63;8.00;;;25.70;69.70;;;;;;5071616;28;20102;-70
2023/06/18 07:25:35;;;;;;;11.40;8.35;;;25.80;69.60;;;;;;5072651;28;20027;-70
2023/06/18 07:28:01;;;;;;;12.15;9.40;;;25.80;69.00;;;;;;5071110;28;20433;-70
2023/06/18 07:30:26;;;;;;;11.77;8.32;;;25.70;68.80;;;;;;5071743;28;20107;-70
2023/06/18 07:32:52;;;;;;;12.90;8.77;;;25.60;68.40;;;;;;5071515;28;20028;-70
2023/06/18 07:35:17;;;;;;;10.98;8.77;;;25.60;69.20;;;;;;5069765;28;20020;-70
2023/06/18 07:37:43;;;;;;;13.35;9.60;;;25.50;69.80;;;;;;5055891;28;20025;-70
2023/06/18 07:40:09;;;;;;;9.88;8.27;;;25.30;70.00;;;;;;5070869;28;20035;-70
2023/06/18 07:42:34;;;;;;;9.73;8.57;;;25.20;70.80;;;;;;5071396;28;20029;-70
2023/06/18 07:45:00;;;;;;;12.80;9.32;;;25.10;70.00;;;;;;5071264;28;20081;-70
2023/06/18 07:47:25;;;;;;;12.38;9.60;;;25.10;69.50;;;;;;5071914;28;20032;-70
2023/06/18 07:49:51;;;;;;;12.90;10.23;;;25.10;69.60;;;;;;5071345;28;20043;-70
2023/06/18 07:52:17;;;;;;;10.35;8.82;;;25.10;69.90;;;;;;5069900;28;20031;-70
2023/06/18 07:54:42;;;;;;;9.52;7.93;;;25.10;69.80;;;;;;5071477;28;20047;-70
2023/06/18 07:57:08;;;;;;;11.70;8.32;;;25.10;69.40;;;;;;5071357;28;20082;-70
2023/06/18 07:59:33;;;;;;;11.98;8.20;;;25.10;69.80;;;;;;5071757;28;20028;-70
2023/06/18 08:01:59;;;;;;;10.93;8.05;;;25.20;70.50;;;;;;5071463;28;20442;-70
2023/06/18 08:04:25;;;;;;;12.63;8.30;;;25.30;69.90;;;;;;5071511;28;20040;-70
2023/06/18 08:06:50;;;;;;;11.00;8.15;;;25.50;69.10;;;;;;5070326;28;20497;-70
2023/06/18 08:09:17;;;;;;;8.80;7.30;;;25.70;68.20;;;;;;5071573;28;20048;-70
2023/06/18 08:11:43;;;;;;;10.82;7.55;;;25.90;66.20;;;;;;5071451;28;20488;-70
2023/06/18 08:14:10;;;;;;;8.07;7.25;;;26.00;64.60;;;;;;5071045;28;20036;-70
2023/06/18 08:16:36;;;;;;;8.50;6.35;;;26.00;63.60;;;;;;5071449;28;20020;-70
2023/06/18 08:19:01;;;;;;;10.68;7.13;;;26.10;63.40;;;;;;5070928;28;20032;-70
2023/06/18 08:21:27;;;;;;;6.10;5.43;;;26.30;63.50;;;;;;5070802;28;20024;-70
2023/06/18 08:23:52;;;;;;;14.80;5.88;;;26.50;63.20;;;;;;5070996;28;20033;-70
2023/06/18 08:26:19;;;;;;;7.70;6.20;;;26.70;62.40;;;;;;5071369;28;20466;-70
2023/06/18 08:28:45;;;;;;;12.15;6.40;;;26.90;61.60;;;;;;5071223;28;20033;-70
2023/06/18 08:31:10;;;;;;;9.32;7.05;;;27.10;60.60;;;;;;5070871;28;20017;-70
2023/06/18 08:33:36;;;;;;;6.40;5.35;;;27.20;59.60;;;;;;5069624;28;20024;-70
2023/06/18 08:36:01;;;;;;;11.40;6.53;;;27.30;59.00;;;;;;5065256;28;20029;-70
2023/06/18 08:38:27;;;;;;;8.25;7.35;;;27.40;59.20;;;;;;5071248;28;20090;-70
2023/06/18 08:41:01;;;;;;;10.60;8.57;;;27.60;58.40;;;;;;5069355;28;20471;-70
2023/06/18 08:43:31;;;;;;;10.15;7.50;;;27.80;57.50;;;;;;5071079;28;20534;-70
2023/06/18 08:46:02;;;;;;;11.18;8.88;;;27.90;57.40;;;;;;5070838;28;20386;-70
2023/06/18 08:48:29;;;;;;;10.80;9.17;;;28.10;57.40;;;;;;5070723;28;20478;-70
2023/06/18 08:51:02;;;;;;;12.75;8.48;;;28.30;56.60;;;;;;5070514;28;20441;-70
2023/06/18 08:53:50;;;;;;;10.60;8.48;;;28.40;56.60;;;;;;5071818;28;20433;-70
2023/06/18 08:56:20;;;;;;;12.63;8.63;;;28.60;56.70;;;;;;5075056;28;20074;-70
2023/06/18 08:58:50;;;;;;;9.20;7.90;;;28.60;56.60;;;;;;5074917;28;20024;-70
2023/06/18 09:01:16;;;;;;;10.68;9.13;;;28.50;56.50;;;;;;5074660;28;20430;-70
2023/06/18 09:03:42;;;;;;;11.63;8.57;;;28.40;56.60;;;;;;5074890;28;20060;-71
2023/06/18 09:06:09;;;;;;;9.85;8.63;;;28.50;56.80;;;;;;5073993;28;20519;-70
2023/06/18 09:08:36;;;;;;;10.93;8.15;;;28.70;56.60;;;;;;5075191;28;20078;-70
2023/06/18 09:11:03;;;;;;;12.15;8.57;;;28.90;56.10;;;;;;5074312;28;20021;-70
2023/06/18 09:13:29;;;;;;;12.60;8.00;;;29.00;54.90;;;;;;5074660;28;20029;-70
2023/06/18 09:15:55;;;;;;;8.60;7.25;;;29.00;54.80;;;;;;5074028;28;20028;-71
2023/06/18 09:18:23;;;;;;;8.13;6.57;;;28.90;55.10;;;;;;5074308;28;20028;-70
2023/06/18 09:20:51;;;;;;;9.43;7.60;;;29.00;55.10;;;;;;5074336;28;20029;-70
2023/06/18 09:23:16;;;;;;;10.85;6.07;;;29.00;54.70;;;;;;5074458;28;20398;-70
2023/06/18 09:25:49;;;;;;;8.98;5.72;;;28.90;55.40;;;;;;5074192;28;20017;-70
2023/06/18 09:28:15;;;;;;;13.85;7.63;;;28.90;55.80;;;;;;5074009;28;20033;-70
2023/06/18 09:30:58;;;;;;;10.30;6.65;;;28.90;55.10;;;;;;5074004;28;20024;-70
2023/06/18 09:33:34;;;;;;;6.22;5.60;;;28.90;55.10;;;;;;5071100;28;20424;-70
2023/06/18 09:36:05;;;;;;;7.47;6.40;;;28.90;55.50;;;;;;5073854;28;20021;-70
2023/06/18 09:38:39;;;;;;;9.45;6.03;;;28.90;55.40;;;;;;5074286;28;20024;-70
2023/06/18 09:41:16;;;;;;;8.15;7.20;;;28.90;55.40;;;;;;5074329;28;20032;-70
2023/06/18 09:43:45;;;;;;;8.18;6.18;;;28.80;55.10;;;;;;5074184;28;20040;-70
2023/06/18 09:46:11;;;;;;;7.95;5.80;;;28.60;55.80;;;;;;5073501;28;20021;-70
2023/06/18 09:48:47;;;;;;;7.85;5.60;;;28.50;56.90;;;;;;5073636;28;20040;-70
2023/06/18 09:51:16;;;;;;;11.48;6.15;;;28.50;57.30;;;;;;5073463;28;20029;-70
2023/06/18 09:53:42;;;;;;;8.05;5.28;;;28.50;56.60;;;;;;5073694;28;20576;-70
2023/06/18 09:56:13;;;;;;;5.70;5.18;;;28.50;57.60;;;;;;5073669;28;20025;-70
2023/06/18 09:58:49;;;;;;;10.02;5.85;;;28.50;57.40;;;;;;5074192;28;20047;-70
2023/06/18 10:01:16;;;;;;;6.97;6.15;;;28.60;57.90;;;;;;5073390;28;20063;-70
2023/06/18 10:03:43;;;;;;;10.25;6.00;;;28.60;57.20;;;;;;5073519;28;20094;-70
2023/06/18 10:06:17;;;;;;;7.85;5.40;;;28.70;56.80;;;;;;5071876;28;20095;-70
2023/06/18 10:08:45;;;;;;;7.03;5.40;;;28.90;57.50;;;;;;5073736;28;20033;-70
2023/06/18 10:11:11;;;;;;;7.65;5.35;;;28.90;57.10;;;;;;5073302;28;20024;-70
2023/06/18 10:13:48;;;;;;;6.30;5.30;;;28.90;57.00;;;;;;5073513;28;20021;-70
2023/06/18 10:16:17;;;;;;;6.55;5.60;;;28.90;57.70;;;;;;5073429;28;20025;-70
2023/06/18 10:19:23;;;;;;;8.88;5.20;;;28.90;57.70;;;;;;5072668;28;20034;-71
2023/06/18 10:22:00;;;;;;;7.85;5.20;;;28.70;58.10;;;;;;5072135;28;20393;-70
2023/06/18 10:24:42;;;;;;;5.90;5.32;;;28.70;57.70;;;;;;5073645;28;20106;-70
2023/06/18 10:27:08;;;;;;;10.55;4.90;;;28.50;57.80;;;;;;5072879;28;20035;-70
2023/06/18 10:29:34;;;;;;;8.20;4.28;;;28.40;58.70;;;;;;5073088;28;20390;-70
2023/06/18 10:32:04;;;;;;;5.47;4.47;;;28.30;60.20;;;;;;5069353;28;20025;-70
2023/06/18 10:34:31;;;;;;;5.30;4.60;;;28.20;60.70;;;;;;5073174;28;20032;-70
2023/06/18 10:36:58;;;;;;;8.13;4.65;;;28.10;61.30;;;;;;5072840;28;20417;-70
2023/06/18 10:39:24;;;;;;;5.88;3.88;;;28.10;61.40;;;;;;5072549;28;20028;-70
2023/06/18 10:42:15;;;;;;;8.50;4.72;;;28.10;61.90;;;;;;5072650;28;20044;-70
2023/06/18 10:44:54;;;;;;;6.65;4.22;;;28.00;61.50;;;;;;5072934;28;20425;-70
2023/06/18 10:47:27;;;;;;;7.95;4.70;;;28.00;62.40;;;;;;5072557;28;20033;-70
2023/06/18 10:50:02;;;;;;;8.18;4.97;;;27.90;61.50;;;;;;5072309;28;20501;-70
2023/06/18 10:52:30;;;;;;;7.10;4.60;;;27.90;61.90;;;;;;5072797;28;20394;-70
2023/06/18 10:55:07;;;;;;;6.03;4.93;;;27.90;62.40;;;;;;5071593;28;20021;-70
2023/06/18 10:58:03;;;;;;;8.18;4.60;;;27.80;61.80;;;;;;5072516;28;20021;-70
2023/06/18 11:00:35;;;;;;;5.80;3.47;;;27.80;61.40;;;;;;5070505;28;20040;-70
2023/06/18 11:03:11;;;;;;;7.57;5.53;;;27.80;61.80;;;;;;5071745;28;20042;-70
2023/06/18 11:05:51;;;;;;;6.75;4.10;;;27.80;61.70;;;;;;5072401;28;20033;-70
2023/06/18 11:08:26;;;;;;;6.38;3.88;;;27.80;61.60;;;;;;5072415;28;20021;-70
2023/06/18 11:11:01;;;;;;;5.18;3.70;;;27.80;61.60;;;;;;5071297;28;20025;-70
2023/06/18 11:13:32;;;;;;;7.78;4.05;;;27.90;61.50;;;;;;5071682;28;20545;-70
2023/06/18 11:16:11;;;;;;;4.70;4.30;;;27.90;61.20;;;;;;5069987;28;20044;-70
2023/06/18 11:18:40;;;;;;;7.45;4.28;;;28.00;61.10;;;;;;5072384;28;20032;-70
2023/06/18 11:21:06;;;;;;;6.07;4.20;;;27.90;61.80;;;;;;5071554;28;20081;-70
2023/06/18 11:23:32;;;;;;;6.65;4.45;;;27.80;62.20;;;;;;5072406;28;20036;-70
2023/06/18 11:25:58;;;;;;;5.15;4.30;;;27.80;62.20;;;;;;5071617;28;20025;-70
2023/06/18 11:28:25;;;;;;;5.97;4.10;;;27.90;62.60;;;;;;5071731;28;20032;-70
2023/06/18 11:31:00;;;;;;;8.40;4.68;;;27.90;62.40;;;;;;5059806;28;20033;-70
2023/06/18 11:33:27;;;;;;;4.72;4.20;;;27.90;62.80;;;;;;5057460;28;20431;-70
2023/06/18 11:35:54;;;;;;;5.60;4.10;;;27.90;63.20;;;;;;5070811;28;20100;-70
2023/06/18 11:38:21;;;;;;;5.15;4.18;;;27.90;63.20;;;;;;5071643;28;20016;-70
2023/06/18 11:40:51;;;;;;;6.53;3.75;;;28.00;62.70;;;;;;5071971;28;20025;-70
2023/06/18 11:43:18;;;;;;;8.18;4.68;;;28.00;63.20;;;;;;5071572;28;20090;-70
2023/06/18 11:45:53;;;;;;;5.63;4.30;;;27.90;62.70;;;;;;5071506;28;20496;-70
2023/06/18 11:48:22;;;;;;;8.70;4.57;;;27.90;62.40;;;;;;5070696;28;20077;-70
2023/06/18 11:50:55;;;;;;;4.38;3.97;;;27.80;62.60;;;;;;5071434;28;20103;-70
2023/06/18 11:53:21;;;;;;;5.20;4.70;;;27.80;62.20;;;;;;5071989;28;20032;-70
2023/06/18 11:55:47;;;;;;;5.75;4.13;;;27.80;62.20;;;;;;5071465;28;20229;-70
2023/06/18 11:58:16;;;;;;;6.57;4.47;;;27.70;62.70;;;;;;5071249;28;20029;-70
2023/06/18 12:00:42;;;;;;;7.47;5.18;;;27.70;62.80;;;;;;5071478;28;20083;-70
2023/06/18 12:03:07;;;;;;;5.38;4.55;;;27.70;62.90;;;;;;5070601;28;20040;-70
2023/06/18 12:05:37;;;;;;;6.25;4.50;;;27.80;62.10;;;;;;5071502;28;20073;-70
2023/06/18 12:08:12;;;;;;;6.53;4.50;;;27.80;62.70;;;;;;5071266;28;20048;-70
2023/06/18 12:10:38;;;;;;;7.55;5.38;;;27.90;63.00;;;;;;5071308;28;20621;-71
2023/06/18 12:13:29;;;;;;;7.97;4.60;;;27.90;63.00;;;;;;5071186;28;20461;-70
2023/06/18 12:16:05;;;;;;;6.77;4.47;;;28.00;62.40;;;;;;5070870;28;20028;-70
2023/06/18 12:18:36;;;;;;;7.25;4.70;;;28.10;62.60;;;;;;5051352;28;20321;-70
2023/06/18 12:21:03;;;;;;;5.77;4.57;;;28.10;61.80;;;;;;5060357;28;20033;-70
2023/06/18 12:23:29;;;;;;;4.93;4.30;;;28.20;62.40;;;;;;5071191;28;20040;-70
2023/06/18 12:25:54;;;;;;;7.13;4.60;;;28.30;61.80;;;;;;5069543;28;20021;-70
2023/06/18 12:28:24;;;;;;;7.68;4.97;;;28.20;61.70;;;;;;5066579;28;20103;-70
2023/06/18 12:30:53;;;;;;;6.60;4.45;;;28.20;62.20;;;;;;5050856;28;20078;-70
2023/06/18 12:33:19;;;;;;;5.45;4.40;;;28.10;61.80;;;;;;5071139;28;20024;-70
2023/06/18 12:35:50;;;;;;;7.75;4.00;;;28.10;61.90;;;;;;5070980;28;20020;-70
2023/06/18 12:38:16;;;;;;;;;;;28.10;61.70;;;;;;5071955;28;20052;-70
2023/06/18 12:40:51;;;;;;;4.05;3.65;;;28.10;61.90;;;;;;5071048;28;20434;-70